sensor_id;sensor_type;location;lat;lon;timestamp;P1;durP1;ratioP1;P2;durP2;ratioP2
21554;SDS011;10938;44.794;-0.676;2023-03-26T00:02:08;13.68;;;2.65;;
21554;SDS011;10938;44.794;-0.676;2023-03-26T00:04:33;11.52;;;2.33;;
21554;SDS011;10938;44.794;-0.676;2023-03-26T00:06:59;9.52;;;2.45;;
21554;SDS011;10938;44.794;-0.676;2023-03-26T00:09:24;12.60;;;2.60;;
21554;SDS011;10938;44.794;-0.676;2023-03-26T00:11:49;11.27;;;2.37;;
21554;SDS011;10938;44.794;-0.676;2023-03-26T00:14:15;10.82;;;2.72;;
21554;SDS011;10938;44.794;-0.676;2023-03-26T00:16:41;13.75;;;2.83;;
21554;SDS011;10938;44.794;-0.676;2023-03-26T00:19:06;12.45;;;2.78;;
21554;SDS011;10938;44.794;-0.676;2023-03-26T00:21:32;10.65;;;3.10;;
21554;SDS011;10938;44.794;-0.676;2023-03-26T00:24:02;8.35;;;2.50;;
21554;SDS011;10938;44.794;-0.676;2023-03-26T00:26:28;10.15;;;2.40;;
21554;SDS011;10938;44.794;-0.676;2023-03-26T00:28:55;6.90;;;2.10;;
21554;SDS011;10938;44.794;-0.676;2023-03-26T00:31:21;9.38;;;2.17;;
21554;SDS011;10938;44.794;-0.676;2023-03-26T00:33:47;10.38;;;2.13;;
21554;SDS011;10938;44.794;-0.676;2023-03-26T00:36:18;9.95;;;2.35;;
21554;SDS011;10938;44.794;-0.676;2023-03-26T00:38:44;6.93;;;2.13;;
21554;SDS011;10938;44.794;-0.676;2023-03-26T00:41:11;9.25;;;2.15;;
21554;SDS011;10938;44.794;-0.676;2023-03-26T00:43:42;10.63;;;2.25;;
21554;SDS011;10938;44.794;-0.676;2023-03-26T00:46:07;10.43;;;2.25;;
21554;SDS011;10938;44.794;-0.676;2023-03-26T00:48:32;14.13;;;2.70;;
21554;SDS011;10938;44.794;-0.676;2023-03-26T00:50:58;10.45;;;2.08;;
21554;SDS011;10938;44.794;-0.676;2023-03-26T00:53:23;10.38;;;2.50;;
21554;SDS011;10938;44.794;-0.676;2023-03-26T00:55:49;8.00;;;2.20;;
21554;SDS011;10938;44.794;-0.676;2023-03-26T00:58:14;11.30;;;2.45;;
21554;SDS011;10938;44.794;-0.676;2023-03-26T01:06:30;9.40;;;1.90;;
21554;SDS011;10938;44.794;-0.676;2023-03-26T01:09:11;8.75;;;2.17;;
21554;SDS011;10938;44.794;-0.676;2023-03-26T01:11:38;7.72;;;1.95;;
21554;SDS011;10938;44.794;-0.676;2023-03-26T01:16:31;9.73;;;2.13;;
21554;SDS011;10938;44.794;-0.676;2023-03-26T01:18:58;12.30;;;2.47;;
21554;SDS011;10938;44.794;-0.676;2023-03-26T01:21:28;11.07;;;2.45;;
21554;SDS011;10938;44.794;-0.676;2023-03-26T01:28:54;10.90;;;1.88;;
21554;SDS011;10938;44.794;-0.676;2023-03-26T01:31:24;7.45;;;2.25;;
21554;SDS011;10938;44.794;-0.676;2023-03-26T01:34:27;14.35;;;2.55;;
21554;SDS011;10938;44.794;-0.676;2023-03-26T01:39:24;8.75;;;1.83;;
21554;SDS011;10938;44.794;-0.676;2023-03-26T01:41:56;11.70;;;2.10;;
21554;SDS011;10938;44.794;-0.676;2023-03-26T01:44:25;13.25;;;2.85;;
21554;SDS011;10938;44.794;-0.676;2023-03-26T01:46:52;10.82;;;2.92;;
21554;SDS011;10938;44.794;-0.676;2023-03-26T01:49:18;12.93;;;3.03;;
21554;SDS011;10938;44.794;-0.676;2023-03-26T01:51:44;10.25;;;2.67;;
21554;SDS011;10938;44.794;-0.676;2023-03-26T01:54:10;13.50;;;2.47;;
21554;SDS011;10938;44.794;-0.676;2023-03-26T02:04:25;13.70;;;2.60;;
21554;SDS011;10938;44.794;-0.676;2023-03-26T02:09:28;16.75;;;2.65;;
21554;SDS011;10938;44.794;-0.676;2023-03-26T02:11:54;14.55;;;3.17;;
21554;SDS011;10938;44.794;-0.676;2023-03-26T02:14:21;16.77;;;3.05;;
21554;SDS011;10938;44.794;-0.676;2023-03-26T02:16:46;14.23;;;2.90;;
21554;SDS011;10938;44.794;-0.676;2023-03-26T02:19:12;13.45;;;3.28;;
21554;SDS011;10938;44.794;-0.676;2023-03-26T02:21:39;14.50;;;2.65;;
21554;SDS011;10938;44.794;-0.676;2023-03-26T02:24:05;15.68;;;3.65;;
21554;SDS011;10938;44.794;-0.676;2023-03-26T02:26:31;12.10;;;3.08;;
21554;SDS011;10938;44.794;-0.676;2023-03-26T02:28:57;11.48;;;2.83;;
21554;SDS011;10938;44.794;-0.676;2023-03-26T02:31:23;18.30;;;3.83;;
21554;SDS011;10938;44.794;-0.676;2023-03-26T02:33:50;18.50;;;3.10;;
21554;SDS011;10938;44.794;-0.676;2023-03-26T02:36:16;16.23;;;3.20;;
21554;SDS011;10938;44.794;-0.676;2023-03-26T02:38:43;14.82;;;3.33;;
21554;SDS011;10938;44.794;-0.676;2023-03-26T02:41:08;14.48;;;2.88;;
21554;SDS011;10938;44.794;-0.676;2023-03-26T02:43:34;15.90;;;3.50;;
21554;SDS011;10938;44.794;-0.676;2023-03-26T02:45:59;19.60;;;3.78;;
21554;SDS011;10938;44.794;-0.676;2023-03-26T02:48:24;20.02;;;3.20;;
21554;SDS011;10938;44.794;-0.676;2023-03-26T02:50:50;17.48;;;3.20;;
21554;SDS011;10938;44.794;-0.676;2023-03-26T02:53:18;16.20;;;3.00;;
21554;SDS011;10938;44.794;-0.676;2023-03-26T02:55:43;15.82;;;2.97;;
21554;SDS011;10938;44.794;-0.676;2023-03-26T02:58:09;19.92;;;3.83;;
21554;SDS011;10938;44.794;-0.676;2023-03-26T03:00:36;21.50;;;3.38;;
21554;SDS011;10938;44.794;-0.676;2023-03-26T03:03:01;18.05;;;3.67;;
21554;SDS011;10938;44.794;-0.676;2023-03-26T03:05:28;15.60;;;3.55;;
21554;SDS011;10938;44.794;-0.676;2023-03-26T03:07:56;21.58;;;3.95;;
21554;SDS011;10938;44.794;-0.676;2023-03-26T03:10:22;21.02;;;3.60;;
21554;SDS011;10938;44.794;-0.676;2023-03-26T03:12:47;24.27;;;3.80;;
21554;SDS011;10938;44.794;-0.676;2023-03-26T03:15:12;15.93;;;3.20;;
21554;SDS011;10938;44.794;-0.676;2023-03-26T03:17:38;19.17;;;3.70;;
21554;SDS011;10938;44.794;-0.676;2023-03-26T03:20:04;26.27;;;4.68;;
21554;SDS011;10938;44.794;-0.676;2023-03-26T03:22:33;18.25;;;3.70;;
21554;SDS011;10938;44.794;-0.676;2023-03-26T03:24:58;17.77;;;3.17;;
21554;SDS011;10938;44.794;-0.676;2023-03-26T03:27:26;19.75;;;3.58;;
21554;SDS011;10938;44.794;-0.676;2023-03-26T03:29:51;13.32;;;2.88;;
21554;SDS011;10938;44.794;-0.676;2023-03-26T03:32:20;16.67;;;2.80;;
21554;SDS011;10938;44.794;-0.676;2023-03-26T03:34:46;16.70;;;3.60;;
21554;SDS011;10938;44.794;-0.676;2023-03-26T03:37:13;18.73;;;3.28;;
21554;SDS011;10938;44.794;-0.676;2023-03-26T03:39:39;22.52;;;3.95;;
21554;SDS011;10938;44.794;-0.676;2023-03-26T03:42:04;12.07;;;2.70;;
21554;SDS011;10938;44.794;-0.676;2023-03-26T03:44:30;16.93;;;3.40;;
21554;SDS011;10938;44.794;-0.676;2023-03-26T03:46:55;15.57;;;3.40;;
21554;SDS011;10938;44.794;-0.676;2023-03-26T03:49:21;20.80;;;3.47;;
21554;SDS011;10938;44.794;-0.676;2023-03-26T03:51:46;18.55;;;3.42;;
21554;SDS011;10938;44.794;-0.676;2023-03-26T03:54:12;24.05;;;4.18;;
21554;SDS011;10938;44.794;-0.676;2023-03-26T03:56:37;21.13;;;4.32;;
21554;SDS011;10938;44.794;-0.676;2023-03-26T03:59:03;25.48;;;3.95;;
21554;SDS011;10938;44.794;-0.676;2023-03-26T04:01:28;14.32;;;3.15;;
21554;SDS011;10938;44.794;-0.676;2023-03-26T04:03:55;22.08;;;3.67;;
21554;SDS011;10938;44.794;-0.676;2023-03-26T04:06:20;22.85;;;3.35;;
21554;SDS011;10938;44.794;-0.676;2023-03-26T04:08:45;21.35;;;4.18;;
21554;SDS011;10938;44.794;-0.676;2023-03-26T04:11:12;20.17;;;4.70;;
21554;SDS011;10938;44.794;-0.676;2023-03-26T04:13:37;21.48;;;4.07;;
21554;SDS011;10938;44.794;-0.676;2023-03-26T04:16:02;18.35;;;4.18;;
21554;SDS011;10938;44.794;-0.676;2023-03-26T04:18:28;20.77;;;4.07;;
21554;SDS011;10938;44.794;-0.676;2023-03-26T04:20:54;25.50;;;4.63;;
21554;SDS011;10938;44.794;-0.676;2023-03-26T04:23:20;19.95;;;3.95;;
21554;SDS011;10938;44.794;-0.676;2023-03-26T04:25:48;18.35;;;4.30;;
21554;SDS011;10938;44.794;-0.676;2023-03-26T04:28:17;18.30;;;3.95;;
21554;SDS011;10938;44.794;-0.676;2023-03-26T04:30:46;23.35;;;3.72;;
21554;SDS011;10938;44.794;-0.676;2023-03-26T04:33:12;24.63;;;3.70;;
21554;SDS011;10938;44.794;-0.676;2023-03-26T04:35:39;18.67;;;3.58;;
21554;SDS011;10938;44.794;-0.676;2023-03-26T04:38:05;22.92;;;4.63;;
21554;SDS011;10938;44.794;-0.676;2023-03-26T04:40:31;22.33;;;3.85;;
21554;SDS011;10938;44.794;-0.676;2023-03-26T04:42:58;27.65;;;4.07;;
21554;SDS011;10938;44.794;-0.676;2023-03-26T04:45:26;27.38;;;4.40;;
21554;SDS011;10938;44.794;-0.676;2023-03-26T04:47:54;24.58;;;4.25;;
21554;SDS011;10938;44.794;-0.676;2023-03-26T04:50:20;26.45;;;4.57;;
21554;SDS011;10938;44.794;-0.676;2023-03-26T04:52:46;19.85;;;3.88;;
21554;SDS011;10938;44.794;-0.676;2023-03-26T04:55:15;24.20;;;4.10;;
21554;SDS011;10938;44.794;-0.676;2023-03-26T04:57:43;25.00;;;3.97;;
21554;SDS011;10938;44.794;-0.676;2023-03-26T05:00:10;21.83;;;4.43;;
21554;SDS011;10938;44.794;-0.676;2023-03-26T05:02:43;31.08;;;4.18;;
21554;SDS011;10938;44.794;-0.676;2023-03-26T05:05:13;19.45;;;3.42;;
21554;SDS011;10938;44.794;-0.676;2023-03-26T05:07:39;23.45;;;4.68;;
21554;SDS011;10938;44.794;-0.676;2023-03-26T05:10:06;22.17;;;3.90;;
21554;SDS011;10938;44.794;-0.676;2023-03-26T05:12:31;22.75;;;4.55;;
21554;SDS011;10938;44.794;-0.676;2023-03-26T05:14:56;26.03;;;5.27;;
21554;SDS011;10938;44.794;-0.676;2023-03-26T05:17:22;19.08;;;3.78;;
21554;SDS011;10938;44.794;-0.676;2023-03-26T05:19:48;24.30;;;4.22;;
21554;SDS011;10938;44.794;-0.676;2023-03-26T05:22:13;19.77;;;4.05;;
21554;SDS011;10938;44.794;-0.676;2023-03-26T05:24:39;23.20;;;4.70;;
21554;SDS011;10938;44.794;-0.676;2023-03-26T05:27:04;25.98;;;4.45;;
21554;SDS011;10938;44.794;-0.676;2023-03-26T05:29:30;22.35;;;4.57;;
21554;SDS011;10938;44.794;-0.676;2023-03-26T05:31:55;23.88;;;4.10;;
21554;SDS011;10938;44.794;-0.676;2023-03-26T05:34:21;24.38;;;4.22;;
21554;SDS011;10938;44.794;-0.676;2023-03-26T05:36:49;27.13;;;3.78;;
21554;SDS011;10938;44.794;-0.676;2023-03-26T05:39:14;25.17;;;4.90;;
21554;SDS011;10938;44.794;-0.676;2023-03-26T05:41:39;22.85;;;4.35;;
21554;SDS011;10938;44.794;-0.676;2023-03-26T05:44:05;28.85;;;4.57;;
21554;SDS011;10938;44.794;-0.676;2023-03-26T05:46:30;23.13;;;4.27;;
21554;SDS011;10938;44.794;-0.676;2023-03-26T05:48:55;21.75;;;3.88;;
21554;SDS011;10938;44.794;-0.676;2023-03-26T05:51:21;23.80;;;4.73;;
21554;SDS011;10938;44.794;-0.676;2023-03-26T05:53:47;17.55;;;3.25;;
21554;SDS011;10938;44.794;-0.676;2023-03-26T05:56:12;26.27;;;4.40;;
21554;SDS011;10938;44.794;-0.676;2023-03-26T05:58:38;25.35;;;3.72;;
21554;SDS011;10938;44.794;-0.676;2023-03-26T06:01:04;21.02;;;3.83;;
21554;SDS011;10938;44.794;-0.676;2023-03-26T06:03:33;29.02;;;3.30;;
21554;SDS011;10938;44.794;-0.676;2023-03-26T06:05:59;26.55;;;4.50;;
21554;SDS011;10938;44.794;-0.676;2023-03-26T06:08:24;23.92;;;3.92;;
21554;SDS011;10938;44.794;-0.676;2023-03-26T06:10:50;20.15;;;3.85;;
21554;SDS011;10938;44.794;-0.676;2023-03-26T06:13:15;25.15;;;4.35;;
21554;SDS011;10938;44.794;-0.676;2023-03-26T06:15:41;26.25;;;4.75;;
21554;SDS011;10938;44.794;-0.676;2023-03-26T06:18:07;30.33;;;4.32;;
21554;SDS011;10938;44.794;-0.676;2023-03-26T06:20:32;29.38;;;4.88;;
21554;SDS011;10938;44.794;-0.676;2023-03-26T06:22:58;32.35;;;5.20;;
21554;SDS011;10938;44.794;-0.676;2023-03-26T06:25:23;25.23;;;4.60;;
21554;SDS011;10938;44.794;-0.676;2023-03-26T06:27:48;25.93;;;4.50;;
21554;SDS011;10938;44.794;-0.676;2023-03-26T06:30:14;23.27;;;4.70;;
21554;SDS011;10938;44.794;-0.676;2023-03-26T06:32:39;18.55;;;3.58;;
21554;SDS011;10938;44.794;-0.676;2023-03-26T06:35:05;19.48;;;4.53;;
21554;SDS011;10938;44.794;-0.676;2023-03-26T06:37:30;26.92;;;4.63;;
21554;SDS011;10938;44.794;-0.676;2023-03-26T06:39:55;24.63;;;4.50;;
21554;SDS011;10938;44.794;-0.676;2023-03-26T06:42:21;24.77;;;4.88;;
21554;SDS011;10938;44.794;-0.676;2023-03-26T06:44:46;25.80;;;4.47;;
21554;SDS011;10938;44.794;-0.676;2023-03-26T06:47:11;23.17;;;4.63;;
21554;SDS011;10938;44.794;-0.676;2023-03-26T06:49:37;29.20;;;5.28;;
21554;SDS011;10938;44.794;-0.676;2023-03-26T06:52:03;29.63;;;4.93;;
21554;SDS011;10938;44.794;-0.676;2023-03-26T06:54:28;23.80;;;5.07;;
21554;SDS011;10938;44.794;-0.676;2023-03-26T06:56:55;25.55;;;5.00;;
21554;SDS011;10938;44.794;-0.676;2023-03-26T06:59:20;27.05;;;4.47;;
21554;SDS011;10938;44.794;-0.676;2023-03-26T07:01:45;23.70;;;4.63;;
21554;SDS011;10938;44.794;-0.676;2023-03-26T07:04:11;18.77;;;3.80;;
21554;SDS011;10938;44.794;-0.676;2023-03-26T07:09:02;20.63;;;3.43;;
21554;SDS011;10938;44.794;-0.676;2023-03-26T07:11:27;16.75;;;3.00;;
21554;SDS011;10938;44.794;-0.676;2023-03-26T07:13:53;13.00;;;3.30;;
21554;SDS011;10938;44.794;-0.676;2023-03-26T07:16:20;10.40;;;2.58;;
21554;SDS011;10938;44.794;-0.676;2023-03-26T07:18:46;14.30;;;2.90;;
21554;SDS011;10938;44.794;-0.676;2023-03-26T07:21:14;11.32;;;2.33;;
21554;SDS011;10938;44.794;-0.676;2023-03-26T07:23:40;12.88;;;2.97;;
21554;SDS011;10938;44.794;-0.676;2023-03-26T07:29:01;11.50;;;2.70;;
21554;SDS011;10938;44.794;-0.676;2023-03-26T07:31:34;16.40;;;2.60;;
21554;SDS011;10938;44.794;-0.676;2023-03-26T07:36:32;9.88;;;2.03;;
21554;SDS011;10938;44.794;-0.676;2023-03-26T07:46:54;12.23;;;2.90;;
21554;SDS011;10938;44.794;-0.676;2023-03-26T07:49:20;15.07;;;4.03;;
21554;SDS011;10938;44.794;-0.676;2023-03-26T07:51:46;15.13;;;4.05;;
21554;SDS011;10938;44.794;-0.676;2023-03-26T07:54:21;14.23;;;3.72;;
21554;SDS011;10938;44.794;-0.676;2023-03-26T08:06:37;17.17;;;4.13;;
21554;SDS011;10938;44.794;-0.676;2023-03-26T08:09:08;17.38;;;4.55;;
21554;SDS011;10938;44.794;-0.676;2023-03-26T08:14:10;18.95;;;4.35;;
21554;SDS011;10938;44.794;-0.676;2023-03-26T08:16:55;14.65;;;3.53;;
21554;SDS011;10938;44.794;-0.676;2023-03-26T08:22:01;16.05;;;3.15;;
21554;SDS011;10938;44.794;-0.676;2023-03-26T08:24:54;16.25;;;3.38;;
21554;SDS011;10938;44.794;-0.676;2023-03-26T08:32:15;13.48;;;3.30;;
21554;SDS011;10938;44.794;-0.676;2023-03-26T08:34:41;11.65;;;2.88;;
21554;SDS011;10938;44.794;-0.676;2023-03-26T08:37:06;12.45;;;3.08;;
21554;SDS011;10938;44.794;-0.676;2023-03-26T08:39:31;11.20;;;2.90;;
21554;SDS011;10938;44.794;-0.676;2023-03-26T09:03:33;3.40;;;1.30;;
21554;SDS011;10938;44.794;-0.676;2023-03-26T09:13:57;7.18;;;1.75;;
21554;SDS011;10938;44.794;-0.676;2023-03-26T09:32:41;12.07;;;2.53;;
21554;SDS011;10938;44.794;-0.676;2023-03-26T10:03:44;17.23;;;3.72;;
21554;SDS011;10938;44.794;-0.676;2023-03-26T10:08:43;18.60;;;4.32;;
21554;SDS011;10938;44.794;-0.676;2023-03-26T10:16:37;19.33;;;4.47;;
21554;SDS011;10938;44.794;-0.676;2023-03-26T10:21:44;20.77;;;4.65;;
21554;SDS011;10938;44.794;-0.676;2023-03-26T10:34:13;25.23;;;4.93;;
21554;SDS011;10938;44.794;-0.676;2023-03-26T10:36:45;20.83;;;4.70;;
21554;SDS011;10938;44.794;-0.676;2023-03-26T10:39:27;34.17;;;6.88;;
21554;SDS011;10938;44.794;-0.676;2023-03-26T10:56:51;22.90;;;4.60;;
21554;SDS011;10938;44.794;-0.676;2023-03-26T10:59:18;17.88;;;4.93;;
21554;SDS011;10938;44.794;-0.676;2023-03-26T11:04:20;21.95;;;5.43;;
21554;SDS011;10938;44.794;-0.676;2023-03-26T11:09:30;22.17;;;5.03;;
21554;SDS011;10938;44.794;-0.676;2023-03-26T11:14:32;19.58;;;4.57;;
21554;SDS011;10938;44.794;-0.676;2023-03-26T11:21:55;27.42;;;5.47;;
21554;SDS011;10938;44.794;-0.676;2023-03-26T11:29:36;23.80;;;4.85;;
21554;SDS011;10938;44.794;-0.676;2023-03-26T11:32:13;29.13;;;5.53;;
21554;SDS011;10938;44.794;-0.676;2023-03-26T11:34:45;24.05;;;5.60;;
21554;SDS011;10938;44.794;-0.676;2023-03-26T11:37:46;26.30;;;5.95;;
21554;SDS011;10938;44.794;-0.676;2023-03-26T11:40:08;22.95;;;5.03;;
21554;SDS011;10938;44.794;-0.676;2023-03-26T11:42:35;23.50;;;4.80;;
21554;SDS011;10938;44.794;-0.676;2023-03-26T11:45:04;24.50;;;5.38;;
21554;SDS011;10938;44.794;-0.676;2023-03-26T11:47:42;22.25;;;5.45;;
21554;SDS011;10938;44.794;-0.676;2023-03-26T11:50:09;23.70;;;5.55;;
21554;SDS011;10938;44.794;-0.676;2023-03-26T11:52:39;24.58;;;4.95;;
21554;SDS011;10938;44.794;-0.676;2023-03-26T11:55:05;23.15;;;5.05;;
21554;SDS011;10938;44.794;-0.676;2023-03-26T11:57:31;24.52;;;5.63;;
21554;SDS011;10938;44.794;-0.676;2023-03-26T12:00:11;18.52;;;4.95;;
21554;SDS011;10938;44.794;-0.676;2023-03-26T12:02:46;20.83;;;4.75;;
21554;SDS011;10938;44.794;-0.676;2023-03-26T12:07:41;22.17;;;4.97;;
21554;SDS011;10938;44.794;-0.676;2023-03-26T12:10:19;23.85;;;4.35;;
21554;SDS011;10938;44.794;-0.676;2023-03-26T12:12:45;23.85;;;4.20;;
21554;SDS011;10938;44.794;-0.676;2023-03-26T12:15:12;22.45;;;4.30;;
21554;SDS011;10938;44.794;-0.676;2023-03-26T12:17:38;30.08;;;4.97;;
21554;SDS011;10938;44.794;-0.676;2023-03-26T12:22:50;25.25;;;5.45;;
21554;SDS011;10938;44.794;-0.676;2023-03-26T12:25:17;30.17;;;5.50;;
21554;SDS011;10938;44.794;-0.676;2023-03-26T12:27:59;31.25;;;5.32;;
21554;SDS011;10938;44.794;-0.676;2023-03-26T12:32:55;34.00;;;6.65;;
21554;SDS011;10938;44.794;-0.676;2023-03-26T12:35:25;29.63;;;5.45;;
21554;SDS011;10938;44.794;-0.676;2023-03-26T12:37:52;32.08;;;5.43;;
21554;SDS011;10938;44.794;-0.676;2023-03-26T12:42:50;30.45;;;6.60;;
21554;SDS011;10938;44.794;-0.676;2023-03-26T12:45:16;30.88;;;6.30;;
21554;SDS011;10938;44.794;-0.676;2023-03-26T12:47:44;29.90;;;5.40;;
21554;SDS011;10938;44.794;-0.676;2023-03-26T12:50:13;27.38;;;5.70;;
21554;SDS011;10938;44.794;-0.676;2023-03-26T12:57:58;27.98;;;5.20;;
21554;SDS011;10938;44.794;-0.676;2023-03-26T13:03:27;22.88;;;4.78;;
21554;SDS011;10938;44.794;-0.676;2023-03-26T13:06:08;26.27;;;5.40;;
21554;SDS011;10938;44.794;-0.676;2023-03-26T13:13:58;33.25;;;6.32;;
21554;SDS011;10938;44.794;-0.676;2023-03-26T13:18:58;29.42;;;6.05;;
21554;SDS011;10938;44.794;-0.676;2023-03-26T13:24:08;30.83;;;6.30;;
21554;SDS011;10938;44.794;-0.676;2023-03-26T13:29:24;33.67;;;6.72;;
21554;SDS011;10938;44.794;-0.676;2023-03-26T13:34:34;30.83;;;6.85;;
21554;SDS011;10938;44.794;-0.676;2023-03-26T13:37:22;30.65;;;6.28;;
21554;SDS011;10938;44.794;-0.676;2023-03-26T13:45:22;33.05;;;5.90;;
21554;SDS011;10938;44.794;-0.676;2023-03-26T13:47:51;32.22;;;6.35;;
21554;SDS011;10938;44.794;-0.676;2023-03-26T13:57:38;35.23;;;6.67;;
21554;SDS011;10938;44.794;-0.676;2023-03-26T14:05:02;39.38;;;8.02;;
21554;SDS011;10938;44.794;-0.676;2023-03-26T14:07:48;34.42;;;7.35;;
21554;SDS011;10938;44.794;-0.676;2023-03-26T14:10:23;29.83;;;6.20;;
21554;SDS011;10938;44.794;-0.676;2023-03-26T14:20:41;25.85;;;6.35;;
21554;SDS011;10938;44.794;-0.676;2023-03-26T14:36:21;36.45;;;7.38;;
21554;SDS011;10938;44.794;-0.676;2023-03-26T14:48:57;34.53;;;6.27;;
21554;SDS011;10938;44.794;-0.676;2023-03-26T14:51:44;28.90;;;6.60;;
21554;SDS011;10938;44.794;-0.676;2023-03-26T14:54:12;29.73;;;6.35;;
21554;SDS011;10938;44.794;-0.676;2023-03-26T15:12:08;28.50;;;6.90;;
21554;SDS011;10938;44.794;-0.676;2023-03-26T15:22:21;25.15;;;6.20;;
21554;SDS011;10938;44.794;-0.676;2023-03-26T15:27:48;27.55;;;6.03;;
21554;SDS011;10938;44.794;-0.676;2023-03-26T15:38:24;46.88;;;7.90;;
21554;SDS011;10938;44.794;-0.676;2023-03-26T15:41:12;37.80;;;6.57;;
21554;SDS011;10938;44.794;-0.676;2023-03-26T15:49:12;22.98;;;5.05;;
21554;SDS011;10938;44.794;-0.676;2023-03-26T15:54:27;26.40;;;5.10;;
21554;SDS011;10938;44.794;-0.676;2023-03-26T15:57:06;24.85;;;4.55;;
21554;SDS011;10938;44.794;-0.676;2023-03-26T15:59:47;31.27;;;5.68;;
21554;SDS011;10938;44.794;-0.676;2023-03-26T16:04:52;30.83;;;7.47;;
21554;SDS011;10938;44.794;-0.676;2023-03-26T16:10:10;44.25;;;12.48;;
21554;SDS011;10938;44.794;-0.676;2023-03-26T16:15:14;40.17;;;14.27;;
21554;SDS011;10938;44.794;-0.676;2023-03-26T16:20:32;38.58;;;7.03;;
21554;SDS011;10938;44.794;-0.676;2023-03-26T16:22:58;52.75;;;18.85;;
21554;SDS011;10938;44.794;-0.676;2023-03-26T16:25:29;29.27;;;7.03;;
21554;SDS011;10938;44.794;-0.676;2023-03-26T16:30:34;27.17;;;5.65;;
21554;SDS011;10938;44.794;-0.676;2023-03-26T16:33:17;28.92;;;6.22;;
21554;SDS011;10938;44.794;-0.676;2023-03-26T16:38:48;24.23;;;4.95;;
21554;SDS011;10938;44.794;-0.676;2023-03-26T16:41:17;21.65;;;4.28;;
21554;SDS011;10938;44.794;-0.676;2023-03-26T16:44:01;24.80;;;5.13;;
21554;SDS011;10938;44.794;-0.676;2023-03-26T17:01:58;33.10;;;5.95;;
21554;SDS011;10938;44.794;-0.676;2023-03-26T17:04:29;24.75;;;5.00;;
21554;SDS011;10938;44.794;-0.676;2023-03-26T17:06:59;23.80;;;6.10;;
21554;SDS011;10938;44.794;-0.676;2023-03-26T17:17:55;35.95;;;7.50;;
21554;SDS011;10938;44.794;-0.676;2023-03-26T17:20:29;39.80;;;16.25;;
21554;SDS011;10938;44.794;-0.676;2023-03-26T17:30:53;36.90;;;7.55;;
21554;SDS011;10938;44.794;-0.676;2023-03-26T17:33:26;33.65;;;7.53;;
21554;SDS011;10938;44.794;-0.676;2023-03-26T17:41:08;31.52;;;6.63;;
21554;SDS011;10938;44.794;-0.676;2023-03-26T17:43:48;32.25;;;8.98;;
21554;SDS011;10938;44.794;-0.676;2023-03-26T17:51:39;28.25;;;5.50;;
21554;SDS011;10938;44.794;-0.676;2023-03-26T17:54:07;26.15;;;6.20;;
21554;SDS011;10938;44.794;-0.676;2023-03-26T17:56:38;29.42;;;7.50;;
21554;SDS011;10938;44.794;-0.676;2023-03-26T17:59:03;26.73;;;7.13;;
21554;SDS011;10938;44.794;-0.676;2023-03-26T18:01:37;31.50;;;7.18;;
21554;SDS011;10938;44.794;-0.676;2023-03-26T18:04:03;31.77;;;6.57;;
21554;SDS011;10938;44.794;-0.676;2023-03-26T18:16:42;38.97;;;10.93;;
21554;SDS011;10938;44.794;-0.676;2023-03-26T18:19:10;33.50;;;8.50;;
21554;SDS011;10938;44.794;-0.676;2023-03-26T18:21:43;31.88;;;8.88;;
21554;SDS011;10938;44.794;-0.676;2023-03-26T18:24:13;19.02;;;4.75;;
21554;SDS011;10938;44.794;-0.676;2023-03-26T18:26:50;32.28;;;5.38;;
21554;SDS011;10938;44.794;-0.676;2023-03-26T18:29:30;23.77;;;4.82;;
21554;SDS011;10938;44.794;-0.676;2023-03-26T18:34:23;23.17;;;6.80;;
21554;SDS011;10938;44.794;-0.676;2023-03-26T18:39:32;25.75;;;5.88;;
21554;SDS011;10938;44.794;-0.676;2023-03-26T18:41:57;24.08;;;5.32;;
21554;SDS011;10938;44.794;-0.676;2023-03-26T18:44:23;28.52;;;5.35;;
21554;SDS011;10938;44.794;-0.676;2023-03-26T18:46:50;27.50;;;6.13;;
21554;SDS011;10938;44.794;-0.676;2023-03-26T18:49:17;26.55;;;5.85;;
21554;SDS011;10938;44.794;-0.676;2023-03-26T18:51:43;25.88;;;5.18;;
21554;SDS011;10938;44.794;-0.676;2023-03-26T18:54:10;19.30;;;4.70;;
21554;SDS011;10938;44.794;-0.676;2023-03-26T18:56:38;21.83;;;5.38;;
21554;SDS011;10938;44.794;-0.676;2023-03-26T18:59:05;25.67;;;6.22;;
21554;SDS011;10938;44.794;-0.676;2023-03-26T19:01:31;29.00;;;5.75;;
21554;SDS011;10938;44.794;-0.676;2023-03-26T19:03:59;20.75;;;5.00;;
21554;SDS011;10938;44.794;-0.676;2023-03-26T19:06:27;18.45;;;5.22;;
21554;SDS011;10938;44.794;-0.676;2023-03-26T19:08:53;20.45;;;5.05;;
21554;SDS011;10938;44.794;-0.676;2023-03-26T19:11:19;28.33;;;5.40;;
21554;SDS011;10938;44.794;-0.676;2023-03-26T19:13:48;23.70;;;5.55;;
21554;SDS011;10938;44.794;-0.676;2023-03-26T19:18:39;23.77;;;5.88;;
21554;SDS011;10938;44.794;-0.676;2023-03-26T19:21:05;21.85;;;4.40;;
21554;SDS011;10938;44.794;-0.676;2023-03-26T19:23:35;23.33;;;4.78;;
21554;SDS011;10938;44.794;-0.676;2023-03-26T19:26:02;25.35;;;4.90;;
21554;SDS011;10938;44.794;-0.676;2023-03-26T19:28:35;23.80;;;4.45;;
21554;SDS011;10938;44.794;-0.676;2023-03-26T19:31:09;24.52;;;4.05;;
21554;SDS011;10938;44.794;-0.676;2023-03-26T19:33:38;22.75;;;5.18;;
21554;SDS011;10938;44.794;-0.676;2023-03-26T19:38:49;22.05;;;4.55;;
21554;SDS011;10938;44.794;-0.676;2023-03-26T19:41:21;23.88;;;5.00;;
21554;SDS011;10938;44.794;-0.676;2023-03-26T19:43:51;24.92;;;4.82;;
21554;SDS011;10938;44.794;-0.676;2023-03-26T19:46:18;24.65;;;5.53;;
21554;SDS011;10938;44.794;-0.676;2023-03-26T19:48:45;26.02;;;5.55;;
21554;SDS011;10938;44.794;-0.676;2023-03-26T19:51:17;25.58;;;5.22;;
21554;SDS011;10938;44.794;-0.676;2023-03-26T19:53:45;26.58;;;5.28;;
21554;SDS011;10938;44.794;-0.676;2023-03-26T19:56:12;23.95;;;4.90;;
21554;SDS011;10938;44.794;-0.676;2023-03-26T19:58:39;25.20;;;4.68;;
21554;SDS011;10938;44.794;-0.676;2023-03-26T20:01:05;27.75;;;4.82;;
21554;SDS011;10938;44.794;-0.676;2023-03-26T20:03:40;25.95;;;4.82;;
21554;SDS011;10938;44.794;-0.676;2023-03-26T20:06:09;20.48;;;4.63;;
21554;SDS011;10938;44.794;-0.676;2023-03-26T20:08:35;25.40;;;5.20;;
21554;SDS011;10938;44.794;-0.676;2023-03-26T20:11:00;30.57;;;5.37;;
21554;SDS011;10938;44.794;-0.676;2023-03-26T20:13:26;26.65;;;5.03;;
21554;SDS011;10938;44.794;-0.676;2023-03-26T20:16:07;25.20;;;5.07;;
21554;SDS011;10938;44.794;-0.676;2023-03-26T20:18:34;26.63;;;5.03;;
21554;SDS011;10938;44.794;-0.676;2023-03-26T20:20:59;23.40;;;4.50;;
21554;SDS011;10938;44.794;-0.676;2023-03-26T20:23:25;28.27;;;5.28;;
21554;SDS011;10938;44.794;-0.676;2023-03-26T20:25:52;32.13;;;5.22;;
21554;SDS011;10938;44.794;-0.676;2023-03-26T20:28:19;32.42;;;6.30;;
21554;SDS011;10938;44.794;-0.676;2023-03-26T20:30:48;28.80;;;4.90;;
21554;SDS011;10938;44.794;-0.676;2023-03-26T20:33:19;28.30;;;6.03;;
21554;SDS011;10938;44.794;-0.676;2023-03-26T20:35:44;27.35;;;6.05;;
21554;SDS011;10938;44.794;-0.676;2023-03-26T20:38:10;27.50;;;5.32;;
21554;SDS011;10938;44.794;-0.676;2023-03-26T20:40:35;22.35;;;5.93;;
21554;SDS011;10938;44.794;-0.676;2023-03-26T20:43:02;23.50;;;5.57;;
21554;SDS011;10938;44.794;-0.676;2023-03-26T20:45:27;28.58;;;5.25;;
21554;SDS011;10938;44.794;-0.676;2023-03-26T20:47:53;25.63;;;5.33;;
21554;SDS011;10938;44.794;-0.676;2023-03-26T20:50:19;26.88;;;5.28;;
21554;SDS011;10938;44.794;-0.676;2023-03-26T20:52:47;24.35;;;5.40;;
21554;SDS011;10938;44.794;-0.676;2023-03-26T20:55:14;36.78;;;6.13;;
21554;SDS011;10938;44.794;-0.676;2023-03-26T20:57:39;29.10;;;5.45;;
21554;SDS011;10938;44.794;-0.676;2023-03-26T21:00:05;25.38;;;5.03;;
21554;SDS011;10938;44.794;-0.676;2023-03-26T21:02:50;26.50;;;4.95;;